Accueil
METAR-TAF:

METAR-TAF

Aéroports :

Aéroport de Sion

Sion, Suisse

latitude: 46-13N, longitude: 007-20E, altitude: 482 m

Observation

Le bulletin a été fait il y a 17 minutes, à 17:20 UTC
Vent 8 kt de ouest, variant entre sud-ouest et ouest/nord-ouest
Température 18°C
Humidité 68%
Pression 1018 hPa
Visibilité 10 km ou plus
Quelques nuages à une hauteur de 16000 ft

METAR: LSGS 281720Z 27008KT 230V300 9999 FEW160 18/12 Q1018

Heure: 19:37 (17:37 UTC)

Prévision

Le bulletin a été fait il y a 3 heures et 12 minutes, à 14:25 UTC
Prévision valable du 28 à 15 UTC au 28 à 24 UTC
Vent 12 kt de ouest/sud-ouest
Visibilité 10 km ou plus
Quelques nuages à une hauteur de 10000 ft
Evoluant progressivement
du 28 à 16 UTC au 28 à 19 UTC
Vent 2 kt de direction variable

TAF: LSGS 281425Z 2815/2824 24012KT 9999 FEW100 BECMG 2816/2819 VRB02KT

Observations et prévisions météorologiques de plus de 4000 aéroports (messages METAR et TAF).

Les stations disponibles sont représentées par des disques jaunes et rouges sur la carte.

Passer la souris dessus pour voir le nom de la station.

Cliquer dessus pour voir les observations et prévisions météorologiques.

Pour changer de carte: cliquez sur les boutons verts avec une croix noire pour zoomer, sur le bouton vert avec un tiret pour effectuer un zoom arrière, ou sur les flèches vertes pour les cartes adjacentes.


METAR-TAF: